Time;durP1;ratioP1;P1;durP2;ratioP2;P2;SDS_P1;SDS_P2;PMS_P1;PMS_P2;Temp;Humidity;BMP_temperature;BMP_pressure;BME280_temperature;BME280_humidity;BME280_pressure;Samples;Min_cycle;Max_cycle;Signal;HPM_P1;HPM_P2
2021/08/27 00:02:02;;;;;;;13.43;3.20;;;15.30;99.60;;;;;;4932624;28;20497;-89
2021/08/27 00:04:31;;;;;;;15.65;4.15;;;15.30;99.60;;;;;;4946868;29;20051;-86
2021/08/27 00:07:09;;;;;;;12.35;3.60;;;15.20;99.60;;;;;;4948780;29;20066;-88
2021/08/27 00:09:40;;;;;;;15.18;3.90;;;15.10;99.80;;;;;;4961771;28;20051;-88
2021/08/27 00:12:10;;;;;;;16.15;3.85;;;15.20;99.90;;;;;;4926231;29;20058;-86
2021/08/27 00:14:46;;;;;;;13.30;4.35;;;15.20;99.90;;;;;;4948512;29;20051;-85
2021/08/27 00:17:15;;;;;;;10.00;4.80;;;15.20;99.80;;;;;;4940186;29;20063;-85
2021/08/27 00:19:44;;;;;;;12.13;3.47;;;15.20;99.90;;;;;;4942483;29;20047;-84
2021/08/27 00:22:27;;;;;;;14.55;4.55;;;15.20;99.90;;;;;;4955526;28;20051;-85
2021/08/27 00:25:16;;;;;;;16.25;4.22;;;15.20;99.90;;;;;;4935978;28;20051;-87
2021/08/27 00:27:46;;;;;;;14.32;4.57;;;15.20;99.90;;;;;;4933762;29;20042;-83
2021/08/27 00:30:14;;;;;;;16.27;3.72;;;15.10;99.90;;;;;;4949711;28;20062;-86
2021/08/27 00:32:42;;;;;;;15.95;3.55;;;15.10;99.90;;;;;;4939476;29;20047;-87
2021/08/27 00:35:11;;;;;;;11.02;3.75;;;15.10;99.90;;;;;;4945439;29;20035;-85
2021/08/27 00:37:41;;;;;;;19.52;4.10;;;15.10;99.90;;;;;;4915780;29;20059;-84
2021/08/27 00:40:10;;;;;;;12.40;3.70;;;15.10;99.90;;;;;;4932807;29;20062;-83
2021/08/27 00:42:44;;;;;;;11.85;4.03;;;15.10;99.90;;;;;;4939305;28;20299;-89
2021/08/27 00:45:26;;;;;;;9.57;3.75;;;14.90;99.90;;;;;;4924853;29;20051;-87
2021/08/27 00:48:00;;;;;;;11.10;4.15;;;15.10;99.90;;;;;;4952357;29;20053;-88
2021/08/27 00:50:47;;;;;;;15.45;3.70;;;15.40;99.90;;;;;;4934749;29;20060;-82
2021/08/27 00:54:07;;;;;;;10.00;3.75;;;15.10;99.90;;;;;;4925537;29;20055;-86
2021/08/27 00:56:42;;;;;;;15.70;3.65;;;15.60;99.90;;;;;;4921245;29;20042;-87
2021/08/27 00:59:11;;;;;;;11.27;3.33;;;15.10;99.90;;;;;;4954317;29;20289;-84
2021/08/27 01:01:42;;;;;;;11.48;4.75;;;15.00;99.90;;;;;;4949750;29;20432;-85
2021/08/27 01:04:25;;;;;;;16.27;3.97;;;15.00;99.90;;;;;;4947226;29;20061;-87
2021/08/27 01:07:04;;;;;;;8.90;3.50;;;15.00;99.90;;;;;;4924343;29;20613;-86
2021/08/27 01:10:13;;;;;;;18.65;4.32;;;15.00;99.90;;;;;;4922174;29;20047;-88
2021/08/27 01:13:29;;;;;;;7.57;2.78;;;15.00;99.90;;;;;;4955527;28;20051;-84
2021/08/27 01:16:22;;;;;;;10.90;3.38;;;14.90;99.90;;;;;;4947274;29;20046;-87
2021/08/27 01:19:35;;;;;;;11.30;2.88;;;14.90;99.90;;;;;;4948701;29;20054;-89
2021/08/27 01:22:27;;;;;;;7.90;2.83;;;14.90;99.90;;;;;;4969125;29;20052;-87
2021/08/27 01:25:21;;;;;;;8.77;3.28;;;15.40;99.90;;;;;;4954302;29;20043;-84
2021/08/27 01:28:00;;;;;;;8.25;3.00;;;14.80;99.90;;;;;;4942706;29;20058;-87
2021/08/27 01:30:49;;;;;;;9.60;2.50;;;14.80;99.90;;;;;;4941052;29;20055;-85
2021/08/27 01:33:22;;;;;;;8.50;2.97;;;14.80;99.90;;;;;;4959430;29;20040;-86
2021/08/27 01:36:10;;;;;;;10.32;2.88;;;14.80;99.90;;;;;;4953915;29;20058;-84
2021/08/27 01:38:46;;;;;;;14.93;4.20;;;14.80;99.90;;;;;;4922358;29;20068;-86
2021/08/27 01:41:17;;;;;;;9.68;2.63;;;14.80;99.90;;;;;;4951521;29;20058;-85
2021/08/27 01:44:10;;;;;;;9.27;3.08;;;14.80;99.90;;;;;;4949743;29;20424;-87
2021/08/27 01:46:41;;;;;;;8.15;3.13;;;14.80;99.90;;;;;;4935901;29;20056;-85
2021/08/27 01:49:12;;;;;;;7.07;3.22;;;14.80;99.90;;;;;;4947602;29;20518;-86
2021/08/27 01:51:42;;;;;;;9.68;2.97;;;14.70;99.90;;;;;;4951087;29;20048;-87
2021/08/27 01:54:13;;;;;;;15.77;4.28;;;14.70;99.90;;;;;;4948344;29;20046;-85
2021/08/27 01:56:42;;;;;;;10.23;3.47;;;14.70;99.90;;;;;;4929660;29;20063;-84
2021/08/27 01:59:12;;;;;;;12.43;3.72;;;14.70;99.90;;;;;;4931134;29;20058;-87
2021/08/27 02:01:40;;;;;;;7.97;3.08;;;14.70;99.90;;;;;;4950306;29;20051;-83
2021/08/27 02:04:14;;;;;;;18.88;3.67;;;14.70;99.90;;;;;;4919898;29;20055;-85
2021/08/27 02:06:49;;;;;;;12.40;2.80;;;14.60;99.90;;;;;;4928215;29;20054;-87
2021/08/27 02:09:26;;;;;;;16.27;3.25;;;14.70;99.90;;;;;;4918303;29;20060;-83
2021/08/27 02:11:57;;;;;;;8.18;3.25;;;14.60;99.90;;;;;;4931674;29;20047;-84
2021/08/27 02:14:26;;;;;;;8.90;3.70;;;14.60;99.90;;;;;;4960283;29;20056;-84
2021/08/27 02:16:55;;;;;;;10.63;3.60;;;14.60;99.90;;;;;;4934148;29;20051;-86
2021/08/27 02:19:26;;;;;;;11.40;3.50;;;14.50;99.90;;;;;;4944214;29;20066;-87
2021/08/27 02:21:56;;;;;;;8.80;3.15;;;14.50;99.90;;;;;;4947667;29;20042;-88
2021/08/27 02:24:33;;;;;;;13.57;3.15;;;14.50;99.90;;;;;;4934567;29;20051;-88
2021/08/27 02:27:27;;;;;;;10.23;2.83;;;14.00;99.90;;;;;;4938539;29;20063;-86
2021/08/27 02:30:07;;;;;;;7.40;3.08;;;14.50;99.90;;;;;;4943335;29;20056;-86
2021/08/27 02:32:36;;;;;;;13.32;3.05;;;14.50;99.90;;;;;;4941616;29;20048;-89
2021/08/27 02:35:06;;;;;;;9.73;3.88;;;14.50;99.90;;;;;;4954217;29;20229;-85
2021/08/27 02:38:07;;;;;;;9.45;3.40;;;14.40;99.90;;;;;;4968139;29;20048;-87
2021/08/27 02:40:41;;;;;;;14.00;3.38;;;14.30;99.90;;;;;;4952108;29;20066;-87
2021/08/27 02:43:40;;;;;;;13.18;4.57;;;14.40;99.90;;;;;;4926865;29;20052;-88
2021/08/27 02:46:30;;;;;;;13.68;3.22;;;14.40;99.90;;;;;;4921474;29;20051;-85
2021/08/27 02:49:05;;;;;;;12.35;2.83;;;14.40;99.90;;;;;;4921599;29;20052;-88
2021/08/27 02:51:45;;;;;;;19.73;3.60;;;14.00;99.90;;;;;;4941875;29;20062;-85
2021/08/27 02:54:17;;;;;;;9.82;3.28;;;14.40;99.90;;;;;;4964245;29;20048;-88
2021/08/27 02:56:54;;;;;;;8.70;3.47;;;14.40;99.90;;;;;;4939873;29;20047;-88
2021/08/27 02:59:39;;;;;;;13.20;4.10;;;14.40;99.90;;;;;;4930282;29;20055;-89
2021/08/27 03:02:16;;;;;;;14.30;3.70;;;13.20;99.90;;;;;;4929283;29;20044;-85
2021/08/27 03:04:54;;;;;;;12.05;5.03;;;14.40;99.90;;;;;;4952962;29;20053;-88
2021/08/27 03:07:44;;;;;;;12.43;4.90;;;14.30;99.90;;;;;;4948403;29;20051;-86
2021/08/27 03:10:31;;;;;;;14.35;3.90;;;14.30;99.90;;;;;;4931351;29;20055;-88
2021/08/27 03:13:15;;;;;;;14.02;5.05;;;14.40;99.90;;;;;;4918439;29;20056;-87
2021/08/27 03:15:58;;;;;;;9.75;4.40;;;14.40;99.90;;;;;;4929808;29;20055;-85
2021/08/27 03:18:54;;;;;;;10.93;3.90;;;14.40;99.90;;;;;;4962183;29;20062;-88
2021/08/27 03:21:43;;;;;;;12.77;4.30;;;14.40;99.90;;;;;;4919525;29;20060;-86
2021/08/27 03:24:36;;;;;;;7.68;4.28;;;14.40;99.90;;;;;;4951956;29;20051;-87
2021/08/27 03:27:19;;;;;;;24.42;5.00;;;14.40;99.90;;;;;;4952828;29;20063;-87
2021/08/27 03:29:55;;;;;;;11.10;3.95;;;14.30;99.90;;;;;;4933775;29;20054;-86
2021/08/27 03:32:32;;;;;;;14.73;4.10;;;14.40;99.90;;;;;;4938407;29;20547;-87
2021/08/27 03:35:02;;;;;;;14.48;4.32;;;14.30;99.90;;;;;;4945888;29;20050;-88
2021/08/27 03:37:36;;;;;;;13.70;4.13;;;14.30;99.90;;;;;;4947553;29;20066;-86
2021/08/27 03:40:12;;;;;;;13.10;4.47;;;14.30;99.90;;;;;;4933945;29;20048;-84
2021/08/27 03:42:42;;;;;;;17.67;4.63;;;14.20;99.90;;;;;;4937438;29;20055;-87
2021/08/27 03:45:23;;;;;;;14.48;3.88;;;14.20;99.90;;;;;;4941588;29;20048;-86
2021/08/27 03:47:52;;;;;;;9.32;3.97;;;14.20;99.90;;;;;;4949956;29;20051;-88
2021/08/27 03:50:23;;;;;;;10.60;4.88;;;14.20;99.90;;;;;;4918300;29;20441;-89
2021/08/27 03:52:55;;;;;;;12.55;4.35;;;14.20;99.90;;;;;;4959166;29;20067;-88
2021/08/27 03:55:31;;;;;;;12.20;4.95;;;14.10;99.90;;;;;;4931620;29;20058;-84
2021/08/27 03:58:01;;;;;;;28.60;5.82;;;14.10;99.90;;;;;;4953050;29;20062;-87
2021/08/27 04:00:41;;;;;;;23.42;5.60;;;14.10;99.90;;;;;;4941238;29;20048;-88
2021/08/27 04:03:12;;;;;;;16.42;6.13;;;14.00;99.90;;;;;;4939996;29;20055;-83
2021/08/27 04:06:08;;;;;;;14.23;5.00;;;14.00;99.90;;;;;;4952546;29;20040;-87
2021/08/27 04:08:43;;;;;;;;;;;14.00;99.90;;;;;;4934865;29;20058;-88
2021/08/27 04:11:17;;;;;;;15.75;6.18;;;13.90;99.90;;;;;;4947447;29;19927;-84
2021/08/27 04:13:47;;;;;;;14.75;6.50;;;13.90;99.90;;;;;;4921197;29;20444;-87
2021/08/27 04:16:17;;;;;;;12.70;4.72;;;13.80;99.90;;;;;;4939800;29;20063;-84
2021/08/27 04:19:03;;;;;;;19.20;5.00;;;13.80;99.90;;;;;;4946313;29;20067;-87
2021/08/27 04:21:57;;;;;;;21.33;5.53;;;13.80;99.90;;;;;;4942947;29;20039;-88
2021/08/27 04:24:31;;;;;;;12.82;5.05;;;13.80;99.90;;;;;;4943711;29;20079;-83
2021/08/27 04:26:59;;;;;;;14.40;5.18;;;13.70;99.90;;;;;;4945747;29;20051;-85
2021/08/27 04:29:38;;;;;;;14.63;7.13;;;13.70;99.90;;;;;;4953784;29;20062;-89
2021/08/27 04:32:13;;;;;;;15.98;6.20;;;13.70;99.90;;;;;;4912285;29;20410;-88
2021/08/27 04:34:47;;;;;;;16.02;4.88;;;13.70;99.90;;;;;;4964126;28;20047;-88
2021/08/27 04:37:30;;;;;;;11.98;4.35;;;13.20;99.90;;;;;;4923550;29;20437;-89
2021/08/27 04:40:05;;;;;;;18.40;6.00;;;13.70;99.90;;;;;;4951970;29;20540;-84
2021/08/27 04:42:38;;;;;;;18.83;6.05;;;13.80;99.90;;;;;;4955151;29;20511;-86
2021/08/27 04:45:12;;;;;;;13.45;5.68;;;13.80;99.90;;;;;;4955930;29;20055;-88
2021/08/27 04:47:48;;;;;;;22.65;7.10;;;13.80;99.90;;;;;;4949447;29;20654;-87
2021/08/27 04:50:16;;;;;;;13.43;5.57;;;13.90;99.90;;;;;;4960770;28;20048;-86
2021/08/27 04:52:45;;;;;;;15.35;6.50;;;13.90;99.90;;;;;;4956308;29;20048;-88
2021/08/27 04:55:13;;;;;;;15.65;7.25;;;13.90;99.90;;;;;;4958405;29;20040;-86
2021/08/27 04:57:43;;;;;;;18.52;6.38;;;14.00;99.90;;;;;;4933301;29;20044;-85
2021/08/27 05:00:16;;;;;;;22.60;4.95;;;14.00;99.90;;;;;;4943406;29;20054;-86
2021/08/27 05:02:47;;;;;;;22.02;6.30;;;14.00;99.90;;;;;;4929277;29;20054;-84
2021/08/27 05:05:21;;;;;;;16.30;5.20;;;14.00;99.90;;;;;;4927331;29;20048;-84
2021/08/27 05:07:52;;;;;;;14.90;5.50;;;13.10;99.90;;;;;;4927600;29;20067;-85
2021/08/27 05:10:22;;;;;;;15.73;6.18;;;14.10;99.90;;;;;;4943812;29;20066;-84
2021/08/27 05:12:51;;;;;;;17.48;6.57;;;14.10;99.90;;;;;;4942388;29;20064;-84
2021/08/27 05:15:45;;;;;;;15.90;5.78;;;14.10;99.90;;;;;;4915069;29;20065;-86
2021/08/27 05:18:15;;;;;;;17.23;5.45;;;14.10;99.90;;;;;;4950929;29;20168;-84
2021/08/27 05:20:45;;;;;;;16.17;6.60;;;14.10;99.90;;;;;;4958988;29;20040;-84
2021/08/27 05:23:16;;;;;;;;;;;14.10;99.90;;;;;;4938573;29;20051;-87
2021/08/27 05:25:45;;;;;;;14.77;6.50;;;14.10;99.90;;;;;;4952842;29;19917;-84
2021/08/27 05:28:13;;;;;;;22.05;6.97;;;14.10;99.90;;;;;;4947122;29;20048;-85
2021/08/27 05:30:49;;;;;;;17.65;5.78;;;14.20;99.90;;;;;;4944185;29;20057;-84
2021/08/27 05:33:28;;;;;;;24.77;5.97;;;14.20;99.90;;;;;;4932893;29;20059;-86
2021/08/27 05:36:09;;;;;;;18.42;5.68;;;14.20;99.90;;;;;;4943860;29;20061;-86
2021/08/27 05:38:43;;;;;;;14.30;5.78;;;14.20;99.90;;;;;;4939757;29;20055;-87
2021/08/27 05:41:52;;;;;;;22.05;7.57;;;14.20;99.90;;;;;;4938299;29;20076;-89
2021/08/27 05:44:38;;;;;;;17.50;6.25;;;14.30;99.90;;;;;;4947351;29;20054;-87
2021/08/27 05:47:11;;;;;;;17.58;6.15;;;14.20;99.90;;;;;;4942122;29;20062;-84
2021/08/27 05:49:43;;;;;;;20.33;6.60;;;14.30;99.90;;;;;;4934871;29;20063;-87
2021/08/27 05:52:22;;;;;;;18.63;6.22;;;14.30;99.90;;;;;;4948782;29;20051;-87
2021/08/27 05:55:04;;;;;;;22.52;6.00;;;14.20;99.90;;;;;;4930492;29;20050;-88
2021/08/27 05:57:35;;;;;;;17.42;8.68;;;14.30;99.90;;;;;;4954355;29;20052;-86
2021/08/27 06:00:08;;;;;;;18.92;8.68;;;14.30;99.90;;;;;;4942500;29;20056;-88
2021/08/27 06:02:37;;;;;;;27.85;7.75;;;14.40;99.90;;;;;;4937067;29;20052;-85
2021/08/27 06:05:07;;;;;;;14.90;6.50;;;14.40;99.90;;;;;;4974681;28;20051;-85
2021/08/27 06:07:37;;;;;;;20.15;6.90;;;14.40;99.90;;;;;;4935663;29;20052;-86
2021/08/27 06:10:11;;;;;;;25.70;7.63;;;14.40;99.90;;;;;;4922428;29;20062;-87
2021/08/27 06:12:51;;;;;;;21.35;6.28;;;15.20;99.90;;;;;;4941913;29;20048;-88
2021/08/27 06:15:23;;;;;;;18.85;5.95;;;14.50;99.90;;;;;;4933848;29;20028;-88
2021/08/27 06:17:58;;;;;;;18.23;6.82;;;14.50;99.90;;;;;;4952678;29;20074;-86
2021/08/27 06:20:44;;;;;;;22.13;6.00;;;15.50;99.90;;;;;;4931608;29;20062;-85
2021/08/27 06:23:28;;;;;;;16.25;5.97;;;14.60;99.90;;;;;;4939635;29;20078;-88
2021/08/27 06:25:57;;;;;;;20.25;6.88;;;14.60;99.90;;;;;;4931332;29;20070;-85
2021/08/27 06:28:32;;;;;;;21.45;7.28;;;14.60;99.90;;;;;;4950106;29;20054;-86
2021/08/27 06:31:04;;;;;;;19.00;6.30;;;14.50;99.90;;;;;;4927678;29;20070;-88
2021/08/27 06:33:36;;;;;;;16.85;6.22;;;14.70;99.90;;;;;;4935745;29;20055;-85
2021/08/27 06:36:07;;;;;;;15.98;7.55;;;14.70;99.90;;;;;;4937024;29;20044;-83
2021/08/27 06:38:50;;;;;;;18.55;6.78;;;14.70;99.90;;;;;;4956370;29;20058;-87
2021/08/27 06:41:32;;;;;;;12.50;5.32;;;14.70;99.90;;;;;;4942968;29;20048;-85
2021/08/27 06:44:09;;;;;;;15.98;6.78;;;14.70;99.90;;;;;;4935491;29;20051;-86
2021/08/27 06:46:43;;;;;;;33.60;6.45;;;14.70;99.90;;;;;;4941014;29;20697;-85
2021/08/27 06:49:13;;;;;;;20.70;8.07;;;14.80;99.90;;;;;;4950452;29;20065;-86
2021/08/27 06:51:51;;;;;;;22.17;7.03;;;14.80;99.90;;;;;;4943677;29;20059;-85
2021/08/27 06:54:24;;;;;;;;;;;14.80;99.90;;;;;;4947497;29;20052;-84
2021/08/27 06:56:52;;;;;;;17.98;7.13;;;14.80;99.90;;;;;;4934315;29;19923;-86
2021/08/27 06:59:23;;;;;;;21.33;6.70;;;14.80;99.90;;;;;;4944100;29;20062;-85
2021/08/27 07:01:52;;;;;;;19.15;6.95;;;14.80;99.90;;;;;;4933894;29;20048;-84
2021/08/27 07:04:22;;;;;;;12.90;6.60;;;14.90;99.90;;;;;;4946918;29;20032;-85
2021/08/27 07:06:53;;;;;;;23.48;5.90;;;14.90;99.90;;;;;;4944521;29;20063;-83
2021/08/27 07:09:26;;;;;;;19.77;6.03;;;14.90;99.90;;;;;;4950116;29;20055;-85
2021/08/27 07:11:55;;;;;;;16.50;6.60;;;15.00;99.90;;;;;;4950040;29;20055;-86
2021/08/27 07:14:32;;;;;;;18.38;5.97;;;15.00;99.90;;;;;;4948199;29;20063;-85
2021/08/27 07:17:14;;;;;;;23.70;6.82;;;15.00;99.90;;;;;;4943106;29;20058;-84
2021/08/27 07:19:43;;;;;;;23.42;6.55;;;15.90;99.90;;;;;;4941613;29;20036;-85
2021/08/27 07:22:11;;;;;;;21.05;7.80;;;15.10;99.90;;;;;;4944956;29;20047;-83
2021/08/27 07:24:45;;;;;;;16.80;6.07;;;15.20;99.90;;;;;;4947666;29;20052;-83
2021/08/27 07:27:22;;;;;;;17.17;6.70;;;15.20;99.90;;;;;;4933159;29;20048;-85
2021/08/27 07:29:50;;;;;;;19.98;6.30;;;15.20;99.90;;;;;;4961186;28;20052;-84
2021/08/27 07:32:19;;;;;;;19.23;6.97;;;15.30;99.90;;;;;;4947399;29;20049;-86
2021/08/27 07:34:57;;;;;;;19.90;6.03;;;15.40;99.90;;;;;;4930354;29;20060;-84
2021/08/27 07:37:25;;;;;;;13.38;6.32;;;15.40;99.90;;;;;;4936149;29;20051;-83
2021/08/27 07:39:53;;;;;;;17.83;6.50;;;15.50;99.90;;;;;;4927786;29;20047;-83
2021/08/27 07:42:22;;;;;;;19.95;5.95;;;15.60;99.90;;;;;;4942878;29;20060;-83
2021/08/27 07:44:51;;;;;;;20.15;6.28;;;15.70;99.90;;;;;;4921596;29;20070;-84
2021/08/27 07:47:19;;;;;;;14.38;5.13;;;15.80;99.90;;;;;;4937864;29;20063;-82
2021/08/27 07:49:47;;;;;;;21.13;5.80;;;15.80;99.90;;;;;;4937857;29;20071;-83
2021/08/27 07:52:16;;;;;;;24.92;6.47;;;14.90;99.90;;;;;;4940089;29;20053;-82
2021/08/27 07:54:45;;;;;;;15.75;6.35;;;15.90;99.90;;;;;;4936241;29;20086;-85
2021/08/27 07:57:26;;;;;;;18.63;6.18;;;15.90;99.90;;;;;;4941660;29;20073;-82
2021/08/27 07:59:55;;;;;;;20.58;5.78;;;16.00;99.90;;;;;;4959529;29;20063;-81
2021/08/27 08:02:24;;;;;;;13.95;5.38;;;16.10;99.90;;;;;;4941364;29;20278;-82
2021/08/27 08:04:54;;;;;;;19.25;4.93;;;16.20;99.90;;;;;;4928664;29;20066;-83
2021/08/27 08:07:23;;;;;;;15.23;5.68;;;16.30;99.90;;;;;;4943404;29;20052;-83
2021/08/27 08:09:52;;;;;;;15.65;5.13;;;16.40;99.90;;;;;;4928177;29;20055;-83
2021/08/27 08:12:20;;;;;;;19.90;5.72;;;16.50;99.90;;;;;;4945505;29;20055;-84
2021/08/27 08:14:48;;;;;;;16.50;5.40;;;16.60;99.90;;;;;;4947057;29;20066;-83
2021/08/27 08:17:17;;;;;;;13.00;5.07;;;16.70;99.90;;;;;;4942152;29;20052;-85
2021/08/27 08:19:46;;;;;;;12.60;4.78;;;16.70;99.90;;;;;;4931759;29;20051;-83
2021/08/27 08:22:17;;;;;;;18.13;4.78;;;16.70;99.90;;;;;;4932809;29;20032;-85
2021/08/27 08:24:58;;;;;;;12.25;4.53;;;16.60;99.90;;;;;;4957569;29;20052;-86
2021/08/27 08:27:31;;;;;;;14.98;5.10;;;16.70;99.90;;;;;;4950370;29;20056;-83
2021/08/27 08:30:00;;;;;;;13.93;5.60;;;16.70;99.90;;;;;;4941454;29;20058;-83
2021/08/27 08:32:28;;;;;;;10.68;3.85;;;16.70;99.90;;;;;;4945770;29;20044;-82
2021/08/27 08:34:56;;;;;;;22.42;6.63;;;17.10;99.90;;;;;;4941768;29;20055;-84
2021/08/27 08:37:25;;;;;;;13.18;4.90;;;16.60;99.90;;;;;;4947938;29;20058;-84
2021/08/27 08:39:55;;;;;;;15.88;3.83;;;16.60;99.90;;;;;;4947248;29;20052;-84
2021/08/27 08:42:23;;;;;;;14.50;4.88;;;16.60;99.90;;;;;;4951523;29;20055;-84
2021/08/27 08:44:52;;;;;;;22.48;6.18;;;16.60;99.90;;;;;;4930977;29;20052;-84
2021/08/27 08:47:22;;;;;;;19.45;6.38;;;16.60;99.90;;;;;;4953125;29;20048;-83
2021/08/27 08:49:51;;;;;;;15.75;4.82;;;16.60;99.90;;;;;;4943585;29;20070;-83
2021/08/27 08:52:24;;;;;;;17.00;5.10;;;16.60;99.90;;;;;;4954964;29;20059;-82
2021/08/27 08:54:53;;;;;;;18.90;4.82;;;16.60;99.90;;;;;;4948043;29;20055;-84
2021/08/27 08:57:22;;;;;;;13.25;4.43;;;16.60;99.90;;;;;;4939778;29;20066;-84
2021/08/27 08:59:51;;;;;;;16.48;5.05;;;17.40;99.90;;;;;;4956088;29;20051;-83
2021/08/27 09:02:19;;;;;;;14.98;5.28;;;16.70;99.90;;;;;;4947502;29;20048;-84
2021/08/27 09:04:50;;;;;;;12.88;4.50;;;16.80;99.90;;;;;;4933270;28;20061;-82
2021/08/27 09:07:20;;;;;;;14.48;4.05;;;16.90;99.90;;;;;;4959861;28;20043;-84
2021/08/27 09:09:53;;;;;;;11.57;3.35;;;16.40;99.90;;;;;;4960527;28;20052;-83
2021/08/27 09:12:24;;;;;;;17.60;4.43;;;17.00;99.90;;;;;;4963029;28;20051;-84
2021/08/27 09:14:58;;;;;;;11.38;4.47;;;17.10;99.90;;;;;;4947331;28;20051;-84
2021/08/27 09:17:35;;;;;;;8.30;3.65;;;17.20;99.90;;;;;;4927450;28;20047;-85
2021/08/27 09:20:13;;;;;;;20.08;5.70;;;17.30;99.90;;;;;;4941391;28;20066;-85
2021/08/27 09:23:03;;;;;;;11.13;3.80;;;17.30;99.90;;;;;;4938879;29;20043;-85
2021/08/27 09:25:54;;;;;;;10.95;3.53;;;17.50;99.90;;;;;;4925060;29;20055;-84
2021/08/27 09:28:38;;;;;;;10.40;3.47;;;17.50;99.90;;;;;;4908501;29;20060;-83
2021/08/27 09:31:07;;;;;;;8.60;3.55;;;17.60;99.90;;;;;;4945387;29;20043;-88
2021/08/27 09:33:37;;;;;;;15.23;4.78;;;17.60;99.90;;;;;;4940063;28;20050;-83
2021/08/27 09:36:07;;;;;;;13.13;3.15;;;17.70;99.90;;;;;;4929668;29;20057;-83
2021/08/27 09:38:58;;;;;;;17.05;3.20;;;17.70;99.90;;;;;;4948792;29;20058;-84
2021/08/27 09:41:27;;;;;;;16.27;3.10;;;17.70;99.90;;;;;;4918103;29;20047;-83
2021/08/27 09:43:57;;;;;;;16.92;3.67;;;17.70;99.90;;;;;;4921446;28;20051;-82
2021/08/27 09:46:42;;;;;;;19.55;4.53;;;17.80;99.90;;;;;;4944851;28;20047;-85
2021/08/27 09:49:32;;;;;;;11.50;2.80;;;17.20;99.90;;;;;;4947580;28;20059;-84
2021/08/27 09:52:03;;;;;;;13.15;3.28;;;18.00;99.50;;;;;;4960248;28;20043;-83
2021/08/27 09:54:38;;;;;;;12.83;3.37;;;18.10;99.90;;;;;;4932035;29;20071;-84
2021/08/27 09:57:12;;;;;;;12.87;4.00;;;18.30;99.70;;;;;;4939809;29;20057;-84
2021/08/27 09:59:50;;;;;;;18.27;2.75;;;18.40;99.70;;;;;;4958145;28;20293;-85
2021/08/27 10:02:25;;;;;;;13.00;3.70;;;18.60;99.60;;;;;;4947795;29;20051;-85
2021/08/27 10:05:02;;;;;;;9.90;3.00;;;18.90;99.00;;;;;;4957129;28;20047;-86
2021/08/27 10:07:41;;;;;;;11.75;3.00;;;19.10;98.80;;;;;;4958355;28;20054;-83
2021/08/27 10:10:18;;;;;;;15.38;3.05;;;19.30;98.30;;;;;;4935596;29;20516;-85
2021/08/27 10:13:01;;;;;;;9.00;3.15;;;19.40;97.70;;;;;;4936348;29;20060;-84
2021/08/27 10:15:31;;;;;;;7.35;2.35;;;19.40;97.70;;;;;;4959053;28;20360;-82
2021/08/27 10:18:00;;;;;;;11.20;3.03;;;19.40;97.80;;;;;;4960660;28;20055;-83
2021/08/27 10:20:29;;;;;;;9.98;3.17;;;19.50;97.40;;;;;;4908963;29;20047;-84
2021/08/27 10:22:58;;;;;;;9.50;2.78;;;19.50;97.60;;;;;;4945158;29;20552;-82
2021/08/27 10:25:28;;;;;;;15.10;3.30;;;18.40;96.90;;;;;;4955191;28;20062;-85
2021/08/27 10:28:03;;;;;;;8.52;3.00;;;19.50;97.10;;;;;;4930987;29;20057;-85
2021/08/27 10:30:55;;;;;;;13.40;4.32;;;20.00;97.20;;;;;;4943471;28;20048;-82
2021/08/27 10:33:41;;;;;;;12.70;2.47;;;19.60;96.70;;;;;;4942465;29;20240;-84
2021/08/27 10:36:20;;;;;;;14.55;3.15;;;19.70;96.20;;;;;;4952728;29;20074;-85
2021/08/27 10:38:55;;;;;;;13.32;3.35;;;19.80;96.40;;;;;;4965496;28;20047;-85
2021/08/27 10:41:36;;;;;;;9.35;2.42;;;19.90;96.40;;;;;;4934549;29;20058;-83
2021/08/27 10:44:16;;;;;;;14.95;2.58;;;19.90;95.90;;;;;;4937759;29;20051;-84
2021/08/27 10:47:05;;;;;;;15.57;2.67;;;20.00;95.80;;;;;;4945896;29;20051;-84
2021/08/27 10:49:56;;;;;;;15.90;3.47;;;20.00;95.80;;;;;;4931244;29;20051;-84
2021/08/27 10:52:38;;;;;;;8.38;2.78;;;20.00;95.10;;;;;;4965830;28;20051;-86
2021/08/27 10:55:12;;;;;;;6.57;2.15;;;20.00;95.40;;;;;;4932431;29;20070;-84
2021/08/27 10:57:58;;;;;;;8.80;1.98;;;20.00;95.70;;;;;;4959851;28;20058;-83
2021/08/27 11:00:31;;;;;;;6.57;2.28;;;20.40;95.40;;;;;;4936766;29;20040;-84
2021/08/27 11:03:00;;;;;;;8.93;2.38;;;20.10;95.40;;;;;;4938957;29;20040;-83
2021/08/27 11:05:44;;;;;;;12.10;3.08;;;20.20;95.40;;;;;;4925678;29;20063;-84
2021/08/27 11:08:44;;;;;;;11.57;2.37;;;20.20;95.20;;;;;;4948889;29;20056;-84
2021/08/27 11:11:16;;;;;;;7.65;3.10;;;20.30;94.60;;;;;;4938748;29;20047;-84
2021/08/27 11:13:49;;;;;;;13.00;2.30;;;20.40;94.50;;;;;;4939119;29;20054;-86
2021/08/27 11:16:19;;;;;;;11.82;2.78;;;20.40;94.80;;;;;;4951617;29;20043;-84
2021/08/27 11:18:50;;;;;;;12.23;2.55;;;20.40;94.70;;;;;;4941972;29;20055;-82
2021/08/27 11:21:29;;;;;;;9.90;2.75;;;20.40;94.90;;;;;;4934396;29;20047;-83
2021/08/27 11:24:16;;;;;;;14.02;3.83;;;20.40;94.70;;;;;;4944658;29;20058;-85
2021/08/27 11:26:57;;;;;;;8.90;1.88;;;20.40;94.50;;;;;;4956279;28;20059;-85
2021/08/27 11:29:39;;;;;;;14.90;2.45;;;20.40;94.70;;;;;;4959489;29;20023;-84
2021/08/27 11:32:34;;;;;;;11.77;2.67;;;20.40;95.10;;;;;;4942594;28;20044;-84
2021/08/27 11:35:07;;;;;;;3.65;1.88;;;20.50;95.00;;;;;;4967829;29;20047;-84
2021/08/27 11:37:39;;;;;;;10.40;2.40;;;20.50;94.90;;;;;;4917943;29;20055;-82
2021/08/27 11:40:15;;;;;;;10.40;3.08;;;20.60;94.90;;;;;;4932966;29;20104;-83
2021/08/27 11:43:57;;;;;;;9.18;2.70;;;20.60;94.40;;;;;;5089467;28;20454;-84
2021/08/27 11:46:28;;;;;;;9.57;2.60;;;20.70;94.30;;;;;;5075873;28;20044;-82
2021/08/27 11:49:13;;;;;;;11.25;3.22;;;20.80;94.40;;;;;;5061195;28;20056;-83
2021/08/27 11:52:05;;;;;;;7.82;2.60;;;20.90;93.80;;;;;;5098191;28;20044;-82
2021/08/27 11:54:34;;;;;;;8.70;2.25;;;21.00;93.70;;;;;;5098814;28;20052;-82
2021/08/27 11:57:25;;;;;;;8.05;2.13;;;21.00;93.60;;;;;;5098490;28;20040;-83
2021/08/27 12:00:08;;;;;;;7.60;2.05;;;21.00;93.30;;;;;;5080975;28;20052;-82
2021/08/27 12:02:42;;;;;;;10.68;2.58;;;21.00;93.30;;;;;;5104445;28;20048;-81
2021/08/27 12:05:14;;;;;;;17.65;3.42;;;21.00;93.30;;;;;;5070261;28;20044;-83
2021/08/27 12:07:49;;;;;;;13.93;2.67;;;21.00;93.30;;;;;;5077623;28;20047;-82
2021/08/27 12:10:18;;;;;;;15.70;2.40;;;21.00;93.50;;;;;;5100250;28;20063;-84
2021/08/27 12:12:51;;;;;;;9.02;2.58;;;20.90;93.50;;;;;;5083787;28;20493;-81
2021/08/27 12:15:29;;;;;;;10.77;3.13;;;20.90;93.60;;;;;;5086130;28;20036;-83
2021/08/27 12:18:08;;;;;;;10.70;4.00;;;20.80;93.50;;;;;;5074129;28;20044;-83
2021/08/27 12:20:41;;;;;;;11.13;2.47;;;20.90;93.60;;;;;;5080785;28;20032;-83
2021/08/27 12:23:13;;;;;;;5.97;2.05;;;20.90;93.40;;;;;;5083209;28;20052;-82
2021/08/27 12:25:53;;;;;;;11.13;3.40;;;21.00;93.40;;;;;;5066172;28;20041;-81
2021/08/27 12:28:33;;;;;;;10.15;2.85;;;21.00;93.30;;;;;;5090981;28;20040;-82
2021/08/27 12:31:05;;;;;;;8.40;2.50;;;21.10;93.20;;;;;;5079281;28;20052;-82
2021/08/27 12:33:55;;;;;;;11.38;3.08;;;21.10;93.30;;;;;;5084096;28;20056;-82
2021/08/27 12:36:24;;;;;;;;;;;21.20;92.90;;;;;;5101702;28;20059;-82
2021/08/27 12:38:56;;;;;;;14.07;2.80;;;21.20;92.20;;;;;;5078564;28;19925;-83
2021/08/27 12:41:31;;;;;;;6.80;2.42;;;21.30;93.00;;;;;;5100427;28;20040;-82
2021/08/27 12:44:08;;;;;;;9.20;2.75;;;21.30;93.00;;;;;;5068409;28;20051;-82
2021/08/27 12:46:48;;;;;;;8.25;2.15;;;21.50;93.30;;;;;;5102348;28;20051;-82
2021/08/27 12:49:24;;;;;;;13.13;2.72;;;21.40;92.40;;;;;;5101478;28;20048;-83
2021/08/27 12:52:07;;;;;;;11.63;2.65;;;21.40;92.30;;;;;;5083048;28;20049;-83
2021/08/27 12:54:44;;;;;;;10.88;2.53;;;21.40;92.60;;;;;;5047768;28;20061;-82
2021/08/27 12:57:16;;;;;;;8.07;2.55;;;22.30;92.60;;;;;;5061929;28;20037;-83
2021/08/27 13:00:04;;;;;;;11.25;3.28;;;21.50;92.40;;;;;;5047390;28;20060;-82
2021/08/27 13:02:39;;;;;;;4.57;1.77;;;21.60;92.10;;;;;;5047584;28;20059;-82
2021/08/27 13:05:10;;;;;;;11.32;3.22;;;21.60;92.20;;;;;;5034430;28;20041;-82
2021/08/27 13:07:41;;;;;;;8.95;2.30;;;21.60;92.00;;;;;;5064795;28;20041;-82
2021/08/27 13:10:13;;;;;;;5.60;2.47;;;21.60;92.20;;;;;;5071176;28;20036;-80
2021/08/27 13:12:47;;;;;;;9.18;2.22;;;21.60;91.90;;;;;;5052105;28;20067;-83
2021/08/27 13:15:28;;;;;;;12.85;2.15;;;21.70;91.90;;;;;;5085808;28;20040;-83
2021/08/27 13:18:02;;;;;;;14.70;5.17;;;21.80;91.30;;;;;;5068479;28;20044;-83
2021/08/27 13:20:51;;;;;;;7.32;2.17;;;21.90;91.70;;;;;;5054241;28;20053;-83
2021/08/27 13:23:23;;;;;;;10.20;2.13;;;22.10;91.10;;;;;;5064274;28;20051;-82
2021/08/27 13:25:55;;;;;;;8.65;2.97;;;22.10;91.30;;;;;;5062961;28;20049;-83
2021/08/27 13:28:27;;;;;;;10.40;2.38;;;21.70;90.80;;;;;;5069252;28;20098;-82